Terminal Aerodrome Forecast
Issued by NWS Corpus Christi, TX

Home | Current Version | Previous Version | Text Only | Print | Product List | Glossary On
Versions: 1 2 3 4 5 6 7 8 9 10 11 12 13 14 15 16 17 18 19 20
748
FTUS44 KCRP 272341
TAFVCT
TAF
KVCT 272341Z 2800/2824 16009KT P6SM SCT060
     FM280900 VRB03KT 2SM BR BKN015
      TEMPO 2810/2812 1/2SM FG
     FM281400 22005KT P6SM SCT025=

USA.gov is the U.S. government's official web portal to all federal, state and local government web resources and services.